createdAt,value
2023-01-19T00:01:51.834Z,504.85
2023-01-19T00:04:21.699Z,498.63
2023-01-19T00:06:51.793Z,504.13
2023-01-19T00:09:21.768Z,515.35
2023-01-19T00:11:51.707Z,531.88
2023-01-19T00:14:21.791Z,518.47
2023-01-19T00:16:51.695Z,523.85
2023-01-19T00:19:21.560Z,535.05
2023-01-19T00:21:51.513Z,553.03
2023-01-19T00:24:21.414Z,547.53
2023-01-19T00:26:51.527Z,545.42
2023-01-19T00:29:22.604Z,545.97
2023-01-19T00:31:53.225Z,531.95
2023-01-19T00:34:23.225Z,539.00
2023-01-19T00:36:53.087Z,568.03
2023-01-19T00:39:23.223Z,553.80
2023-01-19T00:42:11.441Z,545.30
2023-01-19T00:44:41.658Z,548.65
2023-01-19T00:47:12.026Z,538.15
2023-01-19T00:49:43.299Z,513.50
2023-01-19T00:52:13.398Z,510.08
2023-01-19T00:54:43.268Z,512.47
2023-01-19T00:57:13.323Z,516.58
2023-01-19T00:59:43.291Z,530.17
2023-01-19T01:02:13.753Z,520.97
2023-01-19T01:04:43.906Z,542.37
2023-01-19T01:07:13.844Z,542.08
2023-01-19T01:09:43.709Z,541.42
2023-01-19T01:12:13.704Z,538.45
2023-01-19T01:14:43.636Z,554.05
2023-01-19T01:17:16.663Z,571.97
2023-01-19T01:19:46.883Z,536.92
2023-01-19T01:22:16.845Z,543.58
2023-01-19T01:24:48.000Z,555.13
2023-01-19T01:27:18.062Z,543.60
2023-01-19T01:29:50.767Z,584.33
2023-01-19T01:32:20.930Z,557.78
2023-01-19T01:34:50.854Z,582.40
2023-01-19T01:37:20.732Z,530.15
2023-01-19T01:39:50.660Z,554.80
2023-01-19T01:42:22.408Z,552.22
2023-01-19T01:44:55.703Z,574.13
2023-01-19T01:47:49.013Z,589.95
2023-01-19T01:50:24.987Z,517.15
2023-01-19T01:53:07.527Z,526.60
2023-01-19T01:55:44.532Z,566.53
2023-01-19T01:58:16.279Z,561.83
2023-01-19T02:01:05.116Z,521.78
2023-01-19T02:03:35.370Z,531.55
2023-01-19T02:06:09.460Z,530.78
2023-01-19T02:09:14.424Z,548.58
2023-01-19T02:12:03.287Z,518.53
2023-01-19T02:14:33.437Z,499.60
2023-01-19T02:17:03.889Z,532.53
2023-01-19T02:19:42.077Z,561.17
2023-01-19T02:22:38.196Z,565.05
2023-01-19T02:25:09.000Z,689.78
2023-01-19T02:27:40.036Z,572.70
2023-01-19T02:30:12.197Z,606.17
2023-01-19T02:32:42.239Z,799.13
2023-01-19T02:35:13.718Z,608.88
2023-01-19T02:37:46.304Z,609.63
2023-01-19T02:40:22.378Z,599.33
2023-01-19T02:42:54.926Z,590.20
2023-01-19T02:45:26.213Z,583.13
2023-01-19T02:47:56.407Z,679.50
2023-01-19T02:50:38.757Z,610.72
2023-01-19T02:53:27.773Z,605.30
2023-01-19T02:56:12.857Z,625.67
2023-01-19T02:58:48.586Z,660.45
2023-01-19T03:01:32.547Z,605.72
2023-01-19T03:04:25.268Z,571.53
2023-01-19T03:07:06.160Z,550.28
2023-01-19T03:09:40.616Z,558.43
2023-01-19T03:12:19.605Z,557.38
2023-01-19T03:14:50.715Z,572.45
2023-01-19T03:17:21.815Z,558.65
2023-01-19T03:19:56.501Z,561.15
2023-01-19T03:22:32.197Z,587.63
2023-01-19T03:25:05.325Z,589.10
2023-01-19T03:27:43.519Z,591.72
2023-01-19T03:30:25.107Z,573.45
2023-01-19T03:35:31.464Z,573.85
2023-01-19T03:38:05.131Z,574.95
2023-01-19T03:40:37.039Z,912.17
2023-01-19T03:43:08.878Z,668.78
2023-01-19T03:45:41.877Z,593.83
2023-01-19T03:48:12.637Z,613.15
2023-01-19T03:50:42.825Z,585.13
2023-01-19T03:53:17.575Z,579.83
2023-01-19T03:55:52.939Z,615.40
2023-01-19T03:58:24.523Z,608.53
2023-01-19T04:03:25.089Z,592.50
2023-01-19T04:05:55.374Z,604.10
2023-01-19T04:08:25.711Z,614.83
2023-01-19T04:10:56.813Z,588.10
2023-01-19T04:13:29.441Z,593.05
2023-01-19T04:16:03.936Z,601.78
2023-01-19T04:18:35.921Z,597.65
2023-01-19T04:21:09.030Z,606.55
2023-01-19T04:23:39.290Z,623.20
2023-01-19T04:26:11.168Z,608.33
2023-01-19T04:28:41.935Z,606.55
2023-01-19T04:31:13.526Z,614.53
2023-01-19T04:33:44.062Z,623.42
2023-01-19T04:36:14.122Z,621.97
2023-01-19T04:38:44.278Z,613.92
2023-01-19T04:41:14.179Z,612.10
2023-01-19T04:43:44.139Z,612.30
2023-01-19T04:46:14.078Z,603.17
2023-01-19T04:48:43.997Z,610.55
2023-01-19T04:51:13.999Z,617.28
2023-01-19T04:53:43.981Z,647.95
2023-01-19T04:56:14.562Z,637.40
2023-01-19T04:58:44.703Z,614.27
2023-01-19T05:01:15.227Z,632.75
2023-01-19T05:03:45.409Z,620.53
2023-01-19T05:06:15.526Z,612.85
2023-01-19T05:08:45.639Z,638.78
2023-01-19T05:11:15.628Z,625.88
2023-01-19T05:13:45.501Z,607.65
2023-01-19T05:16:16.294Z,619.47
2023-01-19T05:18:46.410Z,606.77
2023-01-19T05:21:16.773Z,612.30
2023-01-19T05:23:46.933Z,608.55
2023-01-19T05:26:17.149Z,620.97
2023-01-19T05:28:47.342Z,603.08
2023-01-19T05:31:18.786Z,639.17
2023-01-19T05:33:50.434Z,630.03
2023-01-19T05:36:20.372Z,592.03
2023-01-19T05:38:51.651Z,619.22
2023-01-19T05:41:21.976Z,622.28
2023-01-19T05:43:51.918Z,627.22
2023-01-19T05:46:21.899Z,617.28
2023-01-19T05:48:51.759Z,622.90
2023-01-19T05:51:23.012Z,631.65
2023-01-19T05:53:53.206Z,625.35
2023-01-19T05:56:23.384Z,631.15
2023-01-19T05:58:53.448Z,659.72
2023-01-19T06:01:23.755Z,640.17
2023-01-19T06:03:53.766Z,628.75
2023-01-19T06:06:23.874Z,634.97
2023-01-19T06:08:54.544Z,640.05
2023-01-19T06:11:24.811Z,664.13
2023-01-19T06:13:54.938Z,365.88
2023-01-19T06:16:24.979Z,759.22
2023-01-19T06:18:55.903Z,753.40
2023-01-19T06:21:26.358Z,748.75
2023-01-19T06:23:56.457Z,803.83
2023-01-19T06:26:26.408Z,805.60
2023-01-19T06:28:56.315Z,769.85
2023-01-19T06:31:26.260Z,756.03
2023-01-19T06:33:56.160Z,744.00
2023-01-19T06:36:26.076Z,790.67
2023-01-19T06:38:55.933Z,920.65
2023-01-19T06:41:25.888Z,689.00
2023-01-19T06:43:55.776Z,150.02
2023-01-19T06:46:25.678Z,24.00
2023-01-19T06:48:56.892Z,43.22
2023-01-19T06:53:56.660Z,28.13
2023-01-19T06:56:27.183Z,22.47
2023-01-19T06:58:58.039Z,18.70
2023-01-19T07:04:00.533Z,15.77
2023-01-19T07:06:30.620Z,232.48
2023-01-19T07:09:02.537Z,88.43
2023-01-19T07:11:33.964Z,371.92
2023-01-19T07:14:04.208Z,291.27
2023-01-19T07:16:34.479Z,111.72
2023-01-19T07:19:04.860Z,75.83
2023-01-19T07:21:35.383Z,236.52
2023-01-19T07:24:05.352Z,160.65
2023-01-19T07:26:35.492Z,216.82
2023-01-19T07:29:05.377Z,557.78
2023-01-19T07:31:35.574Z,716.10
2023-01-19T07:34:06.113Z,924.80
2023-01-19T07:36:36.143Z,966.15
2023-01-19T07:39:06.152Z,905.92
2023-01-19T07:41:36.125Z,830.17
2023-01-19T07:44:10.910Z,782.15
2023-01-19T07:46:40.979Z,686.33
2023-01-19T07:49:11.346Z,922.97
2023-01-19T07:51:41.395Z,958.47
2023-01-19T07:54:11.305Z,706.47
2023-01-19T07:56:41.319Z,610.78
2023-01-19T07:59:12.579Z,396.55
2023-01-19T08:01:42.918Z,955.90
2023-01-19T08:04:13.285Z,607.22
2023-01-19T08:06:47.060Z,996.92
2023-01-19T08:09:17.183Z,963.60
2023-01-19T08:11:47.150Z,999.90
2023-01-19T08:14:16.988Z,914.78
2023-01-19T08:16:47.855Z,993.95
2023-01-19T08:19:17.880Z,942.22
2023-01-19T08:21:48.700Z,947.03
2023-01-19T08:24:30.720Z,944.72
2023-01-19T08:27:02.809Z,982.72
2023-01-19T08:29:34.018Z,992.83
2023-01-19T08:32:05.278Z,986.30
2023-01-19T08:37:05.423Z,978.13
2023-01-19T08:39:36.456Z,986.42
2023-01-19T08:42:06.589Z,992.22
2023-01-19T08:44:43.784Z,865.37
2023-01-19T08:47:19.931Z,980.22
2023-01-19T08:49:50.110Z,972.40
2023-01-19T08:52:19.972Z,996.17
2023-01-19T08:54:49.973Z,963.80
2023-01-19T08:57:20.905Z,990.85
2023-01-19T08:59:51.199Z,974.42
2023-01-19T09:02:21.184Z,978.08
2023-01-19T09:04:52.056Z,987.90
2023-01-19T09:07:22.173Z,987.60
2023-01-19T09:09:52.087Z,999.25
2023-01-19T09:12:22.197Z,973.83
2023-01-19T09:14:52.147Z,959.10
2023-01-19T09:17:22.153Z,993.50
2023-01-19T09:19:52.049Z,989.83
2023-01-19T09:22:22.112Z,989.15
2023-01-19T09:24:52.311Z,911.22
2023-01-19T09:27:22.383Z,988.78
2023-01-19T09:29:54.765Z,975.78
2023-01-19T09:32:25.184Z,981.08
2023-01-19T09:34:57.245Z,982.47
2023-01-19T09:37:27.194Z,988.50
2023-01-19T09:39:57.537Z,991.88
2023-01-19T09:42:41.246Z,879.33
2023-01-19T09:45:37.296Z,974.17
2023-01-19T09:48:15.723Z,994.50
2023-01-19T09:50:49.517Z,989.97
2023-01-19T09:53:34.017Z,983.95
2023-01-19T09:56:04.235Z,986.55
2023-01-19T09:58:34.147Z,985.67
2023-01-19T10:01:15.446Z,982.33
2023-01-19T10:03:45.655Z,786.15
2023-01-19T10:06:16.924Z,901.30
2023-01-19T10:09:07.446Z,856.42
2023-01-19T10:11:53.290Z,836.30
2023-01-19T10:15:03.755Z,947.67
2023-01-19T10:18:05.680Z,941.17
2023-01-19T10:20:43.738Z,810.42
2023-01-19T10:23:54.515Z,737.70
2023-01-19T10:26:26.331Z,758.55
2023-01-19T10:29:04.173Z,757.65
2023-01-19T10:31:36.685Z,670.13
2023-01-19T10:34:06.795Z,736.45
2023-01-19T10:36:39.592Z,802.00
2023-01-19T10:39:14.580Z,932.83
2023-01-19T10:41:53.627Z,997.30
2023-01-19T10:44:36.313Z,795.88
2023-01-19T10:47:09.295Z,946.65
2023-01-19T10:49:44.733Z,800.55
2023-01-19T10:52:39.144Z,967.03
2023-01-19T10:55:22.420Z,967.47
2023-01-19T10:57:55.208Z,949.28
2023-01-19T11:00:39.896Z,971.33
2023-01-19T11:03:32.256Z,911.63
2023-01-19T11:06:23.358Z,721.80
2023-01-19T11:08:55.589Z,725.75
2023-01-19T11:11:26.954Z,714.75
2023-01-19T11:14:13.013Z,712.38
2023-01-19T11:16:48.458Z,456.92
2023-01-19T11:19:24.063Z,596.58
2023-01-19T11:21:54.743Z,380.88
2023-01-19T11:24:26.025Z,370.45
2023-01-19T11:27:05.820Z,310.20
2023-01-19T11:29:35.961Z,385.20
2023-01-19T11:32:24.524Z,354.55
2023-01-19T11:34:55.883Z,394.15
2023-01-19T11:37:36.675Z,252.32
2023-01-19T11:40:11.765Z,235.95
2023-01-19T11:42:43.065Z,229.35
2023-01-19T11:45:20.223Z,236.95
2023-01-19T11:47:53.936Z,226.85
2023-01-19T11:50:40.235Z,229.98
2023-01-19T11:53:21.741Z,236.07
2023-01-19T11:58:50.857Z,245.52
2023-01-19T12:01:50.034Z,220.57
2023-01-19T12:04:29.745Z,254.35
2023-01-19T12:07:01.543Z,271.77
2023-01-19T12:09:38.397Z,278.60
2023-01-19T12:12:26.281Z,245.95
2023-01-19T12:15:24.524Z,141.15
2023-01-19T12:18:00.622Z,10.27
2023-01-19T12:20:39.668Z,11.13
2023-01-19T12:23:12.240Z,9.27
2023-01-19T12:26:21.847Z,72.60
2023-01-19T12:28:53.736Z,120.93
2023-01-19T12:31:25.813Z,65.05
2023-01-19T12:33:56.207Z,85.75
2023-01-19T12:36:38.792Z,269.25
2023-01-19T12:39:24.189Z,166.05
2023-01-19T12:42:21.294Z,165.90
2023-01-19T12:44:55.537Z,173.20
2023-01-19T12:47:26.459Z,168.27
2023-01-19T12:50:02.666Z,240.25
2023-01-19T12:52:37.781Z,176.32
2023-01-19T12:55:16.770Z,11.95
2023-01-19T12:58:17.344Z,17.55
2023-01-19T13:00:50.643Z,12.15
2023-01-19T13:03:20.825Z,11.95
2023-01-19T13:05:58.228Z,14.68
2023-01-19T13:08:32.619Z,18.25
2023-01-19T13:11:02.650Z,19.98
2023-01-19T13:18:05.865Z,23.23
2023-01-19T13:21:24.627Z,24.92
2023-01-19T13:24:02.411Z,21.45
2023-01-19T13:27:01.232Z,20.15
2023-01-19T13:29:38.188Z,18.83
2023-01-19T13:32:24.421Z,19.27
2023-01-19T13:35:02.580Z,16.73
2023-01-19T13:37:48.017Z,18.00
2023-01-19T13:40:27.974Z,20.50
2023-01-19T13:43:02.239Z,19.15
2023-01-19T13:45:37.174Z,17.88
2023-01-19T13:48:13.722Z,18.55
2023-01-19T13:51:01.913Z,18.30
2023-01-19T13:53:35.404Z,17.05
2023-01-19T13:56:25.412Z,17.30
2023-01-19T13:59:10.110Z,17.67
2023-01-19T14:01:48.345Z,18.63
2023-01-19T14:04:50.091Z,18.02
2023-01-19T14:07:30.118Z,17.67
2023-01-19T14:10:09.319Z,20.27
2023-01-19T14:12:58.165Z,17.85
2023-01-19T14:15:34.997Z,18.65
2023-01-19T14:18:28.926Z,19.00
2023-01-19T14:21:34.872Z,17.25
2023-01-19T14:24:33.979Z,18.20
2023-01-19T14:27:23.839Z,18.27
2023-01-19T14:30:23.902Z,19.17
2023-01-19T14:33:01.964Z,19.48
2023-01-19T14:35:35.827Z,19.73
2023-01-19T14:38:11.610Z,20.80
2023-01-19T14:40:45.143Z,20.45
2023-01-19T14:43:18.847Z,21.10
2023-01-19T14:45:52.185Z,20.13
2023-01-19T14:48:26.321Z,20.15
2023-01-19T14:51:07.606Z,22.08
2023-01-19T14:53:43.509Z,20.30
2023-01-19T14:56:28.622Z,20.45
2023-01-19T14:59:07.076Z,20.45
2023-01-19T15:01:40.819Z,18.95
2023-01-19T15:04:14.015Z,17.40
2023-01-19T15:06:49.422Z,19.20
2023-01-19T15:09:22.872Z,19.77
2023-01-19T15:11:56.962Z,21.70
2023-01-19T15:14:33.388Z,21.00
2023-01-19T15:17:06.358Z,23.27
2023-01-19T15:19:39.969Z,24.58
2023-01-19T15:22:18.234Z,25.08
2023-01-19T15:24:49.802Z,25.98
2023-01-19T15:27:29.922Z,26.40
2023-01-19T15:32:32.514Z,26.90
2023-01-19T15:35:02.756Z,27.52
2023-01-19T15:37:33.010Z,26.52
2023-01-19T15:40:02.973Z,25.88
2023-01-19T15:42:33.003Z,28.73
2023-01-19T15:45:03.088Z,27.40
2023-01-19T15:47:33.095Z,27.90
2023-01-19T15:50:03.106Z,27.17
2023-01-19T15:52:33.184Z,28.10
2023-01-19T15:55:03.192Z,26.85
2023-01-19T15:57:33.214Z,29.23
2023-01-19T16:00:05.973Z,27.20
2023-01-19T16:02:40.416Z,27.77
2023-01-19T16:05:11.286Z,26.55
2023-01-19T16:07:41.847Z,28.83
2023-01-19T16:10:12.585Z,26.48
2023-01-19T16:12:42.697Z,27.77
2023-01-19T16:15:14.220Z,28.25
2023-01-19T16:17:44.561Z,29.48
2023-01-19T16:20:15.296Z,28.15
2023-01-19T16:22:47.119Z,26.77
2023-01-19T16:25:17.433Z,28.52
2023-01-19T16:27:47.620Z,26.63
2023-01-19T16:30:19.196Z,28.13
2023-01-19T16:32:49.946Z,26.77
2023-01-19T16:35:20.077Z,27.90
2023-01-19T16:37:53.551Z,28.13
2023-01-19T16:40:23.823Z,28.80
2023-01-19T16:42:54.256Z,29.13
2023-01-19T16:45:24.561Z,28.73
2023-01-19T16:47:54.760Z,29.80
2023-01-19T16:50:24.916Z,30.48
2023-01-19T16:52:59.555Z,28.73
2023-01-19T16:55:29.736Z,27.38
2023-01-19T16:57:59.734Z,27.77
2023-01-19T17:00:29.703Z,26.23
2023-01-19T17:02:59.752Z,25.83
2023-01-19T17:05:30.009Z,25.27
2023-01-19T17:08:00.129Z,23.27
2023-01-19T17:10:30.133Z,23.95
2023-01-19T17:13:02.179Z,23.88
2023-01-19T17:15:33.883Z,23.63
2023-01-19T17:18:04.050Z,23.40
2023-01-19T17:20:36.335Z,21.13
2023-01-19T17:23:06.588Z,22.05
2023-01-19T17:25:36.611Z,20.60
2023-01-19T17:28:06.780Z,20.70
2023-01-19T17:30:37.277Z,20.50
2023-01-19T17:33:07.513Z,19.02
2023-01-19T17:35:38.042Z,20.35
2023-01-19T17:38:08.206Z,19.17
2023-01-19T17:40:38.206Z,20.38
2023-01-19T17:43:08.757Z,19.42
2023-01-19T17:45:39.909Z,18.87
2023-01-19T17:48:10.256Z,17.98
2023-01-19T17:50:40.533Z,17.83
2023-01-19T17:53:10.770Z,18.60
2023-01-19T17:55:40.878Z,20.23
2023-01-19T17:58:10.848Z,19.88
2023-01-19T18:00:40.789Z,18.10
2023-01-19T18:03:10.864Z,18.42
2023-01-19T18:05:40.809Z,19.15
2023-01-19T18:08:10.772Z,19.17
2023-01-19T18:10:40.892Z,19.52
2023-01-19T18:13:10.996Z,18.55
2023-01-19T18:15:41.023Z,18.02
2023-01-19T18:18:11.005Z,18.08
2023-01-19T18:20:42.325Z,17.95
2023-01-19T18:25:42.483Z,18.10
2023-01-19T18:28:12.706Z,17.47
2023-01-19T18:30:43.027Z,20.17
2023-01-19T18:33:13.203Z,18.90
2023-01-19T18:35:43.362Z,20.33
2023-01-19T18:38:13.377Z,18.10
2023-01-19T18:40:43.489Z,18.00
2023-01-19T18:43:14.613Z,17.55
2023-01-19T18:45:44.902Z,17.83
2023-01-19T18:48:16.809Z,18.88
2023-01-19T18:50:48.293Z,17.75
2023-01-19T18:53:18.428Z,19.92
2023-01-19T18:55:56.894Z,17.90
2023-01-19T18:58:30.904Z,18.90
2023-01-19T19:01:04.393Z,18.35
2023-01-19T19:03:34.744Z,19.27
2023-01-19T19:06:06.020Z,18.67
2023-01-19T19:08:36.374Z,19.35
2023-01-19T19:11:12.059Z,19.88
2023-01-19T19:13:43.706Z,18.23
2023-01-19T19:16:15.563Z,18.08
2023-01-19T19:18:45.911Z,18.58
2023-01-19T19:21:16.581Z,18.70
2023-01-19T19:23:46.753Z,18.67
2023-01-19T19:26:16.498Z,18.98
2023-01-19T19:28:47.961Z,19.65
2023-01-19T19:33:51.598Z,19.58
2023-01-19T19:36:22.919Z,18.83
2023-01-19T19:38:53.575Z,19.20
2023-01-19T19:41:26.297Z,22.13
2023-01-19T19:43:57.247Z,19.65
2023-01-19T19:46:29.519Z,21.20
2023-01-19T19:48:59.626Z,19.83
2023-01-19T19:51:30.547Z,20.02
2023-01-19T19:54:03.967Z,20.55
2023-01-19T19:56:36.273Z,21.35
2023-01-19T19:59:06.482Z,20.88
2023-01-19T20:01:36.746Z,19.45
2023-01-19T20:04:10.147Z,21.13
2023-01-19T20:06:43.421Z,18.52
2023-01-19T20:09:19.315Z,20.77
2023-01-19T20:11:51.228Z,19.30
2023-01-19T20:14:23.224Z,19.58
2023-01-19T20:16:55.208Z,20.20
2023-01-19T20:19:25.251Z,20.98
2023-01-19T20:21:55.294Z,20.77
2023-01-19T20:24:25.430Z,20.30
2023-01-19T20:26:55.812Z,20.63
2023-01-19T20:29:25.922Z,18.73
2023-01-19T20:31:58.473Z,20.25
2023-01-19T20:34:33.562Z,20.52
2023-01-19T20:37:06.234Z,19.70
2023-01-19T20:39:37.448Z,19.75
2023-01-19T20:42:11.813Z,20.13
2023-01-19T20:44:43.345Z,21.08
2023-01-19T20:47:13.404Z,21.05
2023-01-19T20:49:44.087Z,21.17
2023-01-19T20:52:14.159Z,19.83
2023-01-19T20:54:44.276Z,19.48
2023-01-19T20:57:14.093Z,21.13
2023-01-19T20:59:43.930Z,18.60
2023-01-19T21:02:18.199Z,19.48
2023-01-19T21:04:48.393Z,19.27
2023-01-19T21:07:18.434Z,18.35
2023-01-19T21:09:48.313Z,20.25
2023-01-19T21:12:18.842Z,17.88
2023-01-19T21:14:48.876Z,19.95
2023-01-19T21:17:18.822Z,17.85
2023-01-19T21:19:48.702Z,17.48
2023-01-19T21:22:18.644Z,18.38
2023-01-19T21:24:49.863Z,17.42
2023-01-19T21:27:19.945Z,18.95
2023-01-19T21:29:50.752Z,18.42
2023-01-19T21:32:20.830Z,20.58
2023-01-19T21:34:50.982Z,18.30
2023-01-19T21:37:21.051Z,18.23
2023-01-19T21:39:50.924Z,17.38
2023-01-19T21:42:20.801Z,18.88
2023-01-19T21:44:52.126Z,19.63
2023-01-19T21:47:22.370Z,18.00
2023-01-19T21:49:52.211Z,19.05
2023-01-19T21:52:22.416Z,16.73
2023-01-19T21:54:52.715Z,17.73
2023-01-19T21:57:22.582Z,16.70
2023-01-19T21:59:52.573Z,18.35
2023-01-19T22:02:37.731Z,16.70
2023-01-19T22:05:08.914Z,17.92
2023-01-19T22:07:40.321Z,16.63
2023-01-19T22:12:44.819Z,15.23
2023-01-19T22:15:15.053Z,18.25
2023-01-19T22:17:45.266Z,16.13
2023-01-19T22:20:15.279Z,18.20
2023-01-19T22:22:45.610Z,17.23
2023-01-19T22:25:16.939Z,17.10
2023-01-19T22:30:16.786Z,17.55
2023-01-19T22:32:47.096Z,16.15
2023-01-19T22:35:17.215Z,16.65
2023-01-19T22:37:47.187Z,15.88
2023-01-19T22:40:17.453Z,16.98
2023-01-19T22:42:49.246Z,17.35
2023-01-19T22:45:19.389Z,16.80
2023-01-19T22:47:49.579Z,18.55
2023-01-19T22:50:19.648Z,19.02
2023-01-19T22:52:50.101Z,16.05
2023-01-19T22:55:21.553Z,17.98
2023-01-19T23:00:41.344Z,16.48
2023-01-19T23:03:11.384Z,17.83
2023-01-19T23:05:41.401Z,18.52
2023-01-19T23:08:11.494Z,19.23
2023-01-19T23:10:42.325Z,18.15
2023-01-19T23:13:12.294Z,18.33
2023-01-19T23:15:42.184Z,18.52
2023-01-19T23:18:12.052Z,17.50
2023-01-19T23:20:41.850Z,17.95
2023-01-19T23:23:11.657Z,19.25
2023-01-19T23:25:41.533Z,17.88
2023-01-19T23:28:11.606Z,18.67
2023-01-19T23:30:41.501Z,17.30
2023-01-19T23:33:11.900Z,19.85
2023-01-19T23:35:41.768Z,20.90
2023-01-19T23:38:12.699Z,19.02
2023-01-19T23:40:42.769Z,17.42
2023-01-19T23:43:12.573Z,19.48
2023-01-19T23:45:42.617Z,18.92
2023-01-19T23:48:12.482Z,16.70
2023-01-19T23:50:43.118Z,19.38
2023-01-19T23:53:13.121Z,17.30
2023-01-19T23:55:44.023Z,19.23
2023-01-19T23:58:14.524Z,18.55
